Array
(
    [0] => p
    [1] => TAF-100
)
- বাংলা English

 Phone: +880-2-9135742, 9123838, 9141437 | Fax: +880-2-9119230, 58152019 | E-mail: info@bmd.gov.bd, swc@bmd.gov.bd | IVR: 1090 **

TAF

TAF VGHS 181700Z 1818/1924 28004KT 3500 HZ NSC TEMPO 1822/1904 30004KT 2500 BR/HZ SCT015 BECMG 1906/1908 32006KT 3500 HZ NSC BECMG 1921/1923 28005KT 2500 HZ SCT015=

TAF VGSY 181000Z 1812/1918 23005KT 4000HZ SCT015 BECMG 1818/1820 00000KT 3000HZ SCT015 BECMG 1823/1901 00000KT 2000BR SCT012 BECMG 1903/1905 09005KT 3500HZ SCT015 TEMPO 1815/1906 27020KT 2000 RA/TSRA BKN007 FEW025CB BKN090=

TAF VGEG 181100Z 1812/1918 33008KT 4000 HZ SCT016
  TEMPO 1818/1903 00000KT 1600 BR SCT012
  BECMG 1903/1905 06008KT 3600 HZ FEW016
  BECMG 1911/1913 35012KT 4000 HZ SCT016=